sensor_id;sensor_type;location;lat;lon;timestamp;noise_LAeq;noise_LA_min;noise_LA_max;noise_LA01;noise_LA95
70245;Laerm;57637;49.272;8.590;2023-11-19T00:01:35;48.46;47.06;50.03;;
70245;Laerm;57637;49.272;8.590;2023-11-19T00:04:00;48.39;46.90;49.91;;
70245;Laerm;57637;49.272;8.590;2023-11-19T00:06:25;48.39;46.87;49.75;;
70245;Laerm;57637;49.272;8.590;2023-11-19T00:08:51;48.38;46.87;49.96;;
70245;Laerm;57637;49.272;8.590;2023-11-19T00:11:16;48.38;46.95;49.69;;
70245;Laerm;57637;49.272;8.590;2023-11-19T00:13:42;48.35;46.93;49.76;;
70245;Laerm;57637;49.272;8.590;2023-11-19T00:16:08;48.35;47.07;49.69;;
70245;Laerm;57637;49.272;8.590;2023-11-19T00:18:35;48.22;46.84;49.61;;
70245;Laerm;57637;49.272;8.590;2023-11-19T00:21:01;48.41;47.05;49.90;;
70245;Laerm;57637;49.272;8.590;2023-11-19T00:23:27;48.38;46.75;49.72;;
70245;Laerm;57637;49.272;8.590;2023-11-19T00:25:52;48.39;46.97;49.73;;
70245;Laerm;57637;49.272;8.590;2023-11-19T00:28:18;48.39;46.90;49.86;;
70245;Laerm;57637;49.272;8.590;2023-11-19T00:30:43;48.38;46.92;50.07;;
70245;Laerm;57637;49.272;8.590;2023-11-19T00:33:09;48.39;46.98;49.73;;
70245;Laerm;57637;49.272;8.590;2023-11-19T00:35:34;48.35;46.83;49.75;;
70245;Laerm;57637;49.272;8.590;2023-11-19T00:37:59;48.32;47.01;49.93;;
70245;Laerm;57637;49.272;8.590;2023-11-19T00:40:25;48.34;47.10;49.88;;
70245;Laerm;57637;49.272;8.590;2023-11-19T00:42:51;48.34;46.87;49.77;;
70245;Laerm;57637;49.272;8.590;2023-11-19T00:45:17;48.32;46.91;49.72;;
70245;Laerm;57637;49.272;8.590;2023-11-19T00:47:42;48.35;47.22;49.85;;
70245;Laerm;57637;49.272;8.590;2023-11-19T00:50:08;48.34;46.94;49.63;;
70245;Laerm;57637;49.272;8.590;2023-11-19T00:52:37;48.32;47.01;49.85;;
70245;Laerm;57637;49.272;8.590;2023-11-19T00:55:04;48.29;46.89;49.46;;
70245;Laerm;57637;49.272;8.590;2023-11-19T00:57:30;48.28;46.99;49.62;;
70245;Laerm;57637;49.272;8.590;2023-11-19T00:59:58;48.32;47.01;49.61;;
70245;Laerm;57637;49.272;8.590;2023-11-19T01:02:24;48.33;47.05;49.75;;
70245;Laerm;57637;49.272;8.590;2023-11-19T01:04:50;48.33;47.00;49.96;;
70245;Laerm;57637;49.272;8.590;2023-11-19T01:07:15;48.33;46.76;49.94;;
70245;Laerm;57637;49.272;8.590;2023-11-19T01:09:44;48.27;46.78;49.52;;
70245;Laerm;57637;49.272;8.590;2023-11-19T01:12:10;48.37;47.02;49.84;;
70245;Laerm;57637;49.272;8.590;2023-11-19T01:14:36;48.36;46.93;49.76;;
70245;Laerm;57637;49.272;8.590;2023-11-19T01:17:01;48.40;46.89;49.94;;
70245;Laerm;57637;49.272;8.590;2023-11-19T01:19:27;48.42;47.20;49.98;;
70245;Laerm;57637;49.272;8.590;2023-11-19T01:21:54;48.43;47.02;49.94;;
70245;Laerm;57637;49.272;8.590;2023-11-19T01:24:19;48.52;47.03;50.43;;
70245;Laerm;57637;49.272;8.590;2023-11-19T01:26:45;48.44;47.16;50.04;;
70245;Laerm;57637;49.272;8.590;2023-11-19T01:29:15;48.37;47.26;49.78;;
70245;Laerm;57637;49.272;8.590;2023-11-19T01:31:45;48.42;46.96;49.77;;
70245;Laerm;57637;49.272;8.590;2023-11-19T01:34:12;48.41;47.07;49.87;;
70245;Laerm;57637;49.272;8.590;2023-11-19T01:36:38;48.43;47.06;49.84;;
70245;Laerm;57637;49.272;8.590;2023-11-19T01:39:04;48.40;47.05;49.93;;
70245;Laerm;57637;49.272;8.590;2023-11-19T01:41:34;48.39;47.05;49.84;;
70245;Laerm;57637;49.272;8.590;2023-11-19T01:44:00;48.36;46.84;49.89;;
70245;Laerm;57637;49.272;8.590;2023-11-19T01:46:26;48.42;47.25;50.08;;
70245;Laerm;57637;49.272;8.590;2023-11-19T01:48:52;48.40;47.00;49.70;;
70245;Laerm;57637;49.272;8.590;2023-11-19T01:51:17;48.38;46.73;49.95;;
70245;Laerm;57637;49.272;8.590;2023-11-19T01:53:43;48.41;47.17;50.18;;
70245;Laerm;57637;49.272;8.590;2023-11-19T01:56:11;48.33;47.07;49.80;;
70245;Laerm;57637;49.272;8.590;2023-11-19T01:58:39;48.31;46.91;49.72;;
70245;Laerm;57637;49.272;8.590;2023-11-19T02:01:06;48.31;47.09;49.65;;
70245;Laerm;57637;49.272;8.590;2023-11-19T02:03:32;48.31;46.94;49.54;;
70245;Laerm;57637;49.272;8.590;2023-11-19T02:05:59;48.26;46.67;49.60;;
70245;Laerm;57637;49.272;8.590;2023-11-19T02:08:25;48.30;47.04;49.67;;
70245;Laerm;57637;49.272;8.590;2023-11-19T02:10:51;48.31;46.69;49.73;;
70245;Laerm;57637;49.272;8.590;2023-11-19T02:13:18;48.34;47.13;49.64;;
70245;Laerm;57637;49.272;8.590;2023-11-19T02:15:43;48.36;47.08;49.79;;
70245;Laerm;57637;49.272;8.590;2023-11-19T02:18:28;48.36;46.93;49.72;;
70245;Laerm;57637;49.272;8.590;2023-11-19T02:20:54;48.41;47.02;49.66;;
70245;Laerm;57637;49.272;8.590;2023-11-19T02:23:20;48.43;47.17;49.74;;
70245;Laerm;57637;49.272;8.590;2023-11-19T02:26:18;48.43;46.99;50.14;;
70245;Laerm;57637;49.272;8.590;2023-11-19T02:28:46;48.33;46.90;49.69;;
70245;Laerm;57637;49.272;8.590;2023-11-19T02:31:11;48.34;47.16;49.62;;
70245;Laerm;57637;49.272;8.590;2023-11-19T02:33:37;48.27;46.67;49.57;;
70245;Laerm;57637;49.272;8.590;2023-11-19T02:36:04;48.36;47.08;49.92;;
70245;Laerm;57637;49.272;8.590;2023-11-19T02:38:30;48.32;46.73;49.69;;
70245;Laerm;57637;49.272;8.590;2023-11-19T02:40:56;48.38;46.97;49.72;;
70245;Laerm;57637;49.272;8.590;2023-11-19T02:43:22;48.37;46.99;49.87;;
70245;Laerm;57637;49.272;8.590;2023-11-19T02:45:48;48.47;47.01;50.04;;
70245;Laerm;57637;49.272;8.590;2023-11-19T02:48:13;48.34;46.94;49.70;;
70245;Laerm;57637;49.272;8.590;2023-11-19T02:50:41;48.38;47.14;50.08;;
70245;Laerm;57637;49.272;8.590;2023-11-19T02:53:07;48.41;47.07;50.20;;
70245;Laerm;57637;49.272;8.590;2023-11-19T02:55:33;48.37;46.84;49.69;;
70245;Laerm;57637;49.272;8.590;2023-11-19T02:58:03;48.41;46.99;49.83;;
70245;Laerm;57637;49.272;8.590;2023-11-19T03:00:35;48.44;46.88;49.87;;
70245;Laerm;57637;49.272;8.590;2023-11-19T03:03:12;48.39;46.88;50.11;;
70245;Laerm;57637;49.272;8.590;2023-11-19T03:05:49;48.42;47.01;49.99;;
70245;Laerm;57637;49.272;8.590;2023-11-19T03:08:15;48.37;46.93;49.87;;
70245;Laerm;57637;49.272;8.590;2023-11-19T03:10:41;48.34;47.11;49.89;;
70245;Laerm;57637;49.272;8.590;2023-11-19T03:13:11;48.33;46.48;49.61;;
70245;Laerm;57637;49.272;8.590;2023-11-19T03:15:38;48.57;47.28;50.16;;
70245;Laerm;57637;49.272;8.590;2023-11-19T03:18:03;48.77;47.21;50.40;;
70245;Laerm;57637;49.272;8.590;2023-11-19T03:20:29;48.55;47.00;49.89;;
70245;Laerm;57637;49.272;8.590;2023-11-19T03:22:55;48.56;47.11;50.04;;
70245;Laerm;57637;49.272;8.590;2023-11-19T03:25:25;48.87;46.96;50.73;;
70245;Laerm;57637;49.272;8.590;2023-11-19T03:27:52;48.52;47.05;50.39;;
70245;Laerm;57637;49.272;8.590;2023-11-19T03:30:18;48.39;46.91;49.78;;
70245;Laerm;57637;49.272;8.590;2023-11-19T03:32:46;48.42;47.13;51.15;;
70245;Laerm;57637;49.272;8.590;2023-11-19T03:35:11;48.38;46.88;50.32;;
70245;Laerm;57637;49.272;8.590;2023-11-19T03:37:37;48.31;47.06;49.86;;
70245;Laerm;57637;49.272;8.590;2023-11-19T03:40:03;48.13;46.92;49.69;;
70245;Laerm;57637;49.272;8.590;2023-11-19T03:42:29;48.13;46.83;49.74;;
70245;Laerm;57637;49.272;8.590;2023-11-19T03:44:58;48.75;47.23;58.27;;
70245;Laerm;57637;49.272;8.590;2023-11-19T03:47:23;50.26;46.87;57.81;;
70245;Laerm;57637;49.272;8.590;2023-11-19T03:49:50;50.90;48.27;54.46;;
70245;Laerm;57637;49.272;8.590;2023-11-19T03:52:16;50.76;49.01;55.71;;
70245;Laerm;57637;49.272;8.590;2023-11-19T03:54:41;50.87;48.71;55.81;;
70245;Laerm;57637;49.272;8.590;2023-11-19T03:57:07;50.98;48.76;55.31;;
70245;Laerm;57637;49.272;8.590;2023-11-19T03:59:32;50.55;49.05;52.27;;
70245;Laerm;57637;49.272;8.590;2023-11-19T04:01:58;50.47;48.68;51.91;;
70245;Laerm;57637;49.272;8.590;2023-11-19T04:04:26;50.61;48.81;52.77;;
70245;Laerm;57637;49.272;8.590;2023-11-19T04:06:53;50.45;48.72;52.20;;
70245;Laerm;57637;49.272;8.590;2023-11-19T04:09:18;50.66;48.94;52.71;;
70245;Laerm;57637;49.272;8.590;2023-11-19T04:11:43;50.67;48.92;52.69;;
70245;Laerm;57637;49.272;8.590;2023-11-19T04:14:12;50.50;48.68;51.92;;
70245;Laerm;57637;49.272;8.590;2023-11-19T04:16:38;50.53;48.94;53.47;;
70245;Laerm;57637;49.272;8.590;2023-11-19T04:19:03;50.23;48.40;51.73;;
70245;Laerm;57637;49.272;8.590;2023-11-19T04:21:29;50.05;48.22;51.38;;
70245;Laerm;57637;49.272;8.590;2023-11-19T04:23:54;50.15;48.48;52.46;;
70245;Laerm;57637;49.272;8.590;2023-11-19T04:26:19;50.39;48.47;52.26;;
70245;Laerm;57637;49.272;8.590;2023-11-19T04:28:45;50.21;48.30;51.89;;
70245;Laerm;57637;49.272;8.590;2023-11-19T04:31:10;50.20;48.54;52.14;;
70245;Laerm;57637;49.272;8.590;2023-11-19T04:33:36;50.59;48.31;52.70;;
70245;Laerm;57637;49.272;8.590;2023-11-19T04:36:01;50.57;48.17;52.60;;
70245;Laerm;57637;49.272;8.590;2023-11-19T04:38:27;50.51;48.48;52.19;;
70245;Laerm;57637;49.272;8.590;2023-11-19T04:40:53;50.83;48.90;52.65;;
70245;Laerm;57637;49.272;8.590;2023-11-19T04:43:18;50.77;49.04;52.38;;
70245;Laerm;57637;49.272;8.590;2023-11-19T04:45:45;50.83;48.99;53.00;;
70245;Laerm;57637;49.272;8.590;2023-11-19T04:48:11;49.24;47.38;52.27;;
70245;Laerm;57637;49.272;8.590;2023-11-19T04:50:37;48.73;47.24;50.49;;
70245;Laerm;57637;49.272;8.590;2023-11-19T04:53:03;48.74;47.25;51.17;;
70245;Laerm;57637;49.272;8.590;2023-11-19T04:55:28;48.85;47.34;52.30;;
70245;Laerm;57637;49.272;8.590;2023-11-19T04:57:54;49.13;47.72;54.21;;
70245;Laerm;57637;49.272;8.590;2023-11-19T05:00:20;49.66;48.07;51.72;;
70245;Laerm;57637;49.272;8.590;2023-11-19T05:02:46;49.65;48.07;51.80;;
70245;Laerm;57637;49.272;8.590;2023-11-19T05:05:12;49.78;47.67;51.59;;
70245;Laerm;57637;49.272;8.590;2023-11-19T05:07:37;49.96;48.41;52.33;;
70245;Laerm;57637;49.272;8.590;2023-11-19T05:10:03;49.92;48.49;51.65;;
70245;Laerm;57637;49.272;8.590;2023-11-19T05:12:31;49.84;48.19;51.48;;
70245;Laerm;57637;49.272;8.590;2023-11-19T05:14:56;49.84;48.33;51.85;;
70245;Laerm;57637;49.272;8.590;2023-11-19T05:17:23;49.79;47.98;51.60;;
70245;Laerm;57637;49.272;8.590;2023-11-19T05:19:49;49.93;48.53;52.20;;
70245;Laerm;57637;49.272;8.590;2023-11-19T05:22:14;50.49;48.69;53.77;;
70245;Laerm;57637;49.272;8.590;2023-11-19T05:24:40;51.44;48.20;55.44;;
70245;Laerm;57637;49.272;8.590;2023-11-19T05:27:06;50.34;48.07;55.21;;
70245;Laerm;57637;49.272;8.590;2023-11-19T05:29:33;49.66;47.96;51.29;;
70245;Laerm;57637;49.272;8.590;2023-11-19T05:31:58;49.58;48.00;52.01;;
70245;Laerm;57637;49.272;8.590;2023-11-19T05:34:24;49.56;47.91;51.62;;
70245;Laerm;57637;49.272;8.590;2023-11-19T05:36:50;49.57;48.01;51.87;;
70245;Laerm;57637;49.272;8.590;2023-11-19T05:39:16;49.37;48.03;52.30;;
70245;Laerm;57637;49.272;8.590;2023-11-19T05:41:42;49.62;48.20;53.28;;
70245;Laerm;57637;49.272;8.590;2023-11-19T05:44:07;49.63;48.00;51.96;;
70245;Laerm;57637;49.272;8.590;2023-11-19T05:46:33;49.72;48.20;52.05;;
70245;Laerm;57637;49.272;8.590;2023-11-19T05:48:58;49.83;47.90;52.15;;
70245;Laerm;57637;49.272;8.590;2023-11-19T05:51:24;49.49;47.77;52.14;;
70245;Laerm;57637;49.272;8.590;2023-11-19T05:53:49;49.46;48.05;51.88;;
70245;Laerm;57637;49.272;8.590;2023-11-19T05:56:15;49.44;47.89;52.55;;
70245;Laerm;57637;49.272;8.590;2023-11-19T05:58:46;49.89;48.21;52.01;;
70245;Laerm;57637;49.272;8.590;2023-11-19T06:01:14;50.05;48.36;51.61;;
70245;Laerm;57637;49.272;8.590;2023-11-19T06:03:39;50.11;48.55;51.82;;
70245;Laerm;57637;49.272;8.590;2023-11-19T06:06:05;49.69;48.09;51.82;;
70245;Laerm;57637;49.272;8.590;2023-11-19T06:08:31;50.35;47.97;53.07;;
70245;Laerm;57637;49.272;8.590;2023-11-19T06:10:56;49.57;48.09;51.04;;
70245;Laerm;57637;49.272;8.590;2023-11-19T06:13:22;49.43;47.69;51.19;;
70245;Laerm;57637;49.272;8.590;2023-11-19T06:15:47;49.52;48.03;51.15;;
70245;Laerm;57637;49.272;8.590;2023-11-19T06:18:12;49.49;47.94;53.11;;
70245;Laerm;57637;49.272;8.590;2023-11-19T06:20:40;49.66;48.19;53.29;;
70245;Laerm;57637;49.272;8.590;2023-11-19T06:23:05;49.72;48.19;53.40;;
70245;Laerm;57637;49.272;8.590;2023-11-19T06:25:30;49.55;47.82;52.51;;
70245;Laerm;57637;49.272;8.590;2023-11-19T06:27:56;49.42;47.87;51.24;;
70245;Laerm;57637;49.272;8.590;2023-11-19T06:30:22;49.49;47.88;52.51;;
70245;Laerm;57637;49.272;8.590;2023-11-19T06:32:47;49.54;47.91;51.79;;
70245;Laerm;57637;49.272;8.590;2023-11-19T06:35:13;49.33;47.80;51.03;;
70245;Laerm;57637;49.272;8.590;2023-11-19T06:37:40;49.32;47.92;51.32;;
70245;Laerm;57637;49.272;8.590;2023-11-19T06:40:06;49.50;48.05;50.81;;
70245;Laerm;57637;49.272;8.590;2023-11-19T06:42:32;49.45;48.15;51.82;;
70245;Laerm;57637;49.272;8.590;2023-11-19T06:44:58;49.47;48.00;51.37;;
70245;Laerm;57637;49.272;8.590;2023-11-19T06:47:27;49.56;48.05;51.33;;
70245;Laerm;57637;49.272;8.590;2023-11-19T06:49:53;49.67;48.05;51.49;;
70245;Laerm;57637;49.272;8.590;2023-11-19T06:52:19;49.72;48.25;51.79;;
70245;Laerm;57637;49.272;8.590;2023-11-19T06:54:44;49.92;48.22;52.19;;
70245;Laerm;57637;49.272;8.590;2023-11-19T06:57:11;49.81;48.17;51.53;;
70245;Laerm;57637;49.272;8.590;2023-11-19T06:59:37;53.63;48.55;67.40;;
70245;Laerm;57637;49.272;8.590;2023-11-19T07:02:02;50.89;49.12;54.70;;
70245;Laerm;57637;49.272;8.590;2023-11-19T07:04:28;50.72;49.04;52.90;;
70245;Laerm;57637;49.272;8.590;2023-11-19T07:06:53;50.80;49.28;55.72;;
70245;Laerm;57637;49.272;8.590;2023-11-19T07:09:19;50.89;49.24;53.95;;
70245;Laerm;57637;49.272;8.590;2023-11-19T07:11:44;50.91;49.23;53.50;;
70245;Laerm;57637;49.272;8.590;2023-11-19T07:14:11;51.03;49.48;53.63;;
70245;Laerm;57637;49.272;8.590;2023-11-19T07:16:37;51.15;49.55;53.31;;
70245;Laerm;57637;49.272;8.590;2023-11-19T07:19:03;51.11;49.52;53.07;;
70245;Laerm;57637;49.272;8.590;2023-11-19T07:21:30;51.04;49.47;52.94;;
70245;Laerm;57637;49.272;8.590;2023-11-19T07:23:55;50.85;49.16;52.72;;
70245;Laerm;57637;49.272;8.590;2023-11-19T07:26:22;50.51;48.95;52.58;;
70245;Laerm;57637;49.272;8.590;2023-11-19T07:28:48;50.56;49.09;52.39;;
70245;Laerm;57637;49.272;8.590;2023-11-19T07:31:13;50.65;49.15;53.60;;
70245;Laerm;57637;49.272;8.590;2023-11-19T07:33:39;51.62;50.08;54.30;;
70245;Laerm;57637;49.272;8.590;2023-11-19T07:36:05;51.15;49.30;53.03;;
70245;Laerm;57637;49.272;8.590;2023-11-19T07:38:30;50.98;49.24;54.68;;
70245;Laerm;57637;49.272;8.590;2023-11-19T07:40:56;50.84;48.98;53.12;;
70245;Laerm;57637;49.272;8.590;2023-11-19T07:43:21;50.87;49.27;58.42;;
70245;Laerm;57637;49.272;8.590;2023-11-19T07:45:47;50.93;49.38;52.78;;
70245;Laerm;57637;49.272;8.590;2023-11-19T07:48:12;50.87;49.17;52.46;;
70245;Laerm;57637;49.272;8.590;2023-11-19T07:50:39;50.84;49.25;53.40;;
70245;Laerm;57637;49.272;8.590;2023-11-19T07:53:06;50.88;48.89;59.71;;
70245;Laerm;57637;49.272;8.590;2023-11-19T07:55:33;50.92;49.34;52.53;;
70245;Laerm;57637;49.272;8.590;2023-11-19T07:57:58;50.88;49.10;52.61;;
70245;Laerm;57637;49.272;8.590;2023-11-19T08:00:24;50.81;49.14;54.52;;
70245;Laerm;57637;49.272;8.590;2023-11-19T08:02:49;50.47;48.69;55.19;;
70245;Laerm;57637;49.272;8.590;2023-11-19T08:05:14;52.57;48.57;71.55;;
70245;Laerm;57637;49.272;8.590;2023-11-19T08:07:40;50.31;48.74;52.92;;
70245;Laerm;57637;49.272;8.590;2023-11-19T08:10:07;50.32;48.57;53.28;;
70245;Laerm;57637;49.272;8.590;2023-11-19T08:12:35;50.49;48.92;52.88;;
70245;Laerm;57637;49.272;8.590;2023-11-19T08:15:02;50.38;48.92;60.48;;
70245;Laerm;57637;49.272;8.590;2023-11-19T08:17:27;50.39;48.94;62.21;;
70245;Laerm;57637;49.272;8.590;2023-11-19T08:19:53;50.41;47.42;61.88;;
70245;Laerm;57637;49.272;8.590;2023-11-19T08:22:18;49.16;47.72;50.70;;
70245;Laerm;57637;49.272;8.590;2023-11-19T08:24:44;49.19;47.80;50.63;;
70245;Laerm;57637;49.272;8.590;2023-11-19T08:27:09;49.26;48.03;50.72;;
70245;Laerm;57637;49.272;8.590;2023-11-19T08:29:35;49.23;47.64;50.79;;
70245;Laerm;57637;49.272;8.590;2023-11-19T08:32:01;49.21;47.56;52.83;;
70245;Laerm;57637;49.272;8.590;2023-11-19T08:34:28;50.37;47.77;56.06;;
70245;Laerm;57637;49.272;8.590;2023-11-19T08:36:54;51.62;49.12;60.64;;
70245;Laerm;57637;49.272;8.590;2023-11-19T08:39:19;51.68;48.83;53.94;;
70245;Laerm;57637;49.272;8.590;2023-11-19T08:41:49;51.82;48.83;62.58;;
70245;Laerm;57637;49.272;8.590;2023-11-19T08:44:15;58.43;48.72;65.93;;
70245;Laerm;57637;49.272;8.590;2023-11-19T08:46:50;52.90;48.41;58.64;;
70245;Laerm;57637;49.272;8.590;2023-11-19T08:49:15;51.29;48.38;58.71;;
70245;Laerm;57637;49.272;8.590;2023-11-19T08:51:41;51.27;48.57;58.15;;
70245;Laerm;57637;49.272;8.590;2023-11-19T08:54:06;51.42;48.92;58.78;;
70245;Laerm;57637;49.272;8.590;2023-11-19T08:56:32;51.84;49.35;59.30;;
70245;Laerm;57637;49.272;8.590;2023-11-19T08:59:00;52.00;49.62;59.16;;
70245;Laerm;57637;49.272;8.590;2023-11-19T09:01:25;52.28;48.61;60.54;;
70245;Laerm;57637;49.272;8.590;2023-11-19T09:03:51;52.53;48.89;59.46;;
70245;Laerm;57637;49.272;8.590;2023-11-19T09:06:17;51.39;48.48;59.14;;
70245;Laerm;57637;49.272;8.590;2023-11-19T09:08:42;51.18;48.72;56.24;;
70245;Laerm;57637;49.272;8.590;2023-11-19T09:11:08;51.23;48.61;59.07;;
70245;Laerm;57637;49.272;8.590;2023-11-19T09:13:34;51.33;48.51;55.53;;
70245;Laerm;57637;49.272;8.590;2023-11-19T09:16:00;51.43;48.91;60.41;;
70245;Laerm;57637;49.272;8.590;2023-11-19T09:18:29;51.22;48.76;55.85;;
70245;Laerm;57637;49.272;8.590;2023-11-19T09:20:55;50.26;48.35;58.98;;
70245;Laerm;57637;49.272;8.590;2023-11-19T09:23:20;50.25;48.56;52.15;;
70245;Laerm;57637;49.272;8.590;2023-11-19T09:25:46;50.41;48.50;60.00;;
70245;Laerm;57637;49.272;8.590;2023-11-19T09:28:11;50.48;48.59;52.82;;
70245;Laerm;57637;49.272;8.590;2023-11-19T09:30:38;50.52;48.09;57.19;;
70245;Laerm;57637;49.272;8.590;2023-11-19T09:33:03;49.61;47.36;62.06;;
70245;Laerm;57637;49.272;8.590;2023-11-19T09:35:29;51.12;49.19;55.66;;
70245;Laerm;57637;49.272;8.590;2023-11-19T09:37:54;52.14;50.56;53.89;;
70245;Laerm;57637;49.272;8.590;2023-11-19T09:40:20;52.10;50.38;54.12;;
70245;Laerm;57637;49.272;8.590;2023-11-19T09:42:47;51.90;50.18;53.68;;
70245;Laerm;57637;49.272;8.590;2023-11-19T09:45:14;51.94;49.92;54.02;;
70245;Laerm;57637;49.272;8.590;2023-11-19T09:47:45;52.26;50.27;54.02;;
70245;Laerm;57637;49.272;8.590;2023-11-19T09:50:16;52.45;50.86;54.50;;
70245;Laerm;57637;49.272;8.590;2023-11-19T09:52:42;53.40;50.58;66.86;;
70245;Laerm;57637;49.272;8.590;2023-11-19T09:55:08;53.26;51.43;55.18;;
70245;Laerm;57637;49.272;8.590;2023-11-19T09:57:33;52.22;50.51;54.53;;
70245;Laerm;57637;49.272;8.590;2023-11-19T10:00:03;52.92;50.73;57.02;;
70245;Laerm;57637;49.272;8.590;2023-11-19T10:02:31;53.86;52.10;57.38;;
70245;Laerm;57637;49.272;8.590;2023-11-19T10:04:59;54.31;52.31;57.21;;
70245;Laerm;57637;49.272;8.590;2023-11-19T10:07:25;54.42;52.30;57.10;;
70245;Laerm;57637;49.272;8.590;2023-11-19T10:09:51;54.44;52.37;57.06;;
70245;Laerm;57637;49.272;8.590;2023-11-19T10:12:16;60.22;52.85;65.65;;
70245;Laerm;57637;49.272;8.590;2023-11-19T10:14:42;58.70;54.47;65.55;;
70245;Laerm;57637;49.272;8.590;2023-11-19T10:17:09;57.48;54.31;61.79;;
70245;Laerm;57637;49.272;8.590;2023-11-19T10:19:34;57.41;54.60;61.55;;
70245;Laerm;57637;49.272;8.590;2023-11-19T10:22:04;56.73;54.54;58.70;;
70245;Laerm;57637;49.272;8.590;2023-11-19T10:24:33;57.12;53.95;59.75;;
70245;Laerm;57637;49.272;8.590;2023-11-19T10:27:00;56.55;54.41;58.35;;
70245;Laerm;57637;49.272;8.590;2023-11-19T10:29:29;56.75;54.74;58.97;;
70245;Laerm;57637;49.272;8.590;2023-11-19T10:31:58;56.87;54.84;59.27;;
70245;Laerm;57637;49.272;8.590;2023-11-19T10:34:27;56.78;54.85;58.68;;
70245;Laerm;57637;49.272;8.590;2023-11-19T10:36:52;56.62;54.68;59.23;;
70245;Laerm;57637;49.272;8.590;2023-11-19T10:39:18;55.85;53.23;58.29;;
70245;Laerm;57637;49.272;8.590;2023-11-19T10:41:44;55.14;53.07;60.64;;
70245;Laerm;57637;49.272;8.590;2023-11-19T10:44:09;55.11;53.13;57.43;;
70245;Laerm;57637;49.272;8.590;2023-11-19T10:46:39;55.04;53.16;58.04;;
70245;Laerm;57637;49.272;8.590;2023-11-19T10:49:06;55.26;53.07;57.53;;
70245;Laerm;57637;49.272;8.590;2023-11-19T10:51:32;55.03;53.11;56.96;;
70245;Laerm;57637;49.272;8.590;2023-11-19T10:54:06;55.04;52.89;57.94;;
70245;Laerm;57637;49.272;8.590;2023-11-19T10:56:33;56.29;53.16;59.58;;
70245;Laerm;57637;49.272;8.590;2023-11-19T10:59:00;56.68;54.35;60.08;;
70245;Laerm;57637;49.272;8.590;2023-11-19T11:01:45;56.86;53.92;60.12;;
70245;Laerm;57637;49.272;8.590;2023-11-19T11:04:14;56.92;54.61;60.47;;
70245;Laerm;57637;49.272;8.590;2023-11-19T11:06:43;57.17;54.75;59.76;;
70245;Laerm;57637;49.272;8.590;2023-11-19T11:09:09;58.05;55.26;60.81;;
70245;Laerm;57637;49.272;8.590;2023-11-19T11:11:40;56.89;52.99;60.27;;
70245;Laerm;57637;49.272;8.590;2023-11-19T11:14:07;57.23;55.01;59.80;;
70245;Laerm;57637;49.272;8.590;2023-11-19T11:16:34;57.11;54.08;59.41;;
70245;Laerm;57637;49.272;8.590;2023-11-19T11:18:59;55.99;51.76;58.81;;
70245;Laerm;57637;49.272;8.590;2023-11-19T11:21:26;55.64;50.86;58.53;;
70245;Laerm;57637;49.272;8.590;2023-11-19T11:24:17;55.95;53.52;58.41;;
70245;Laerm;57637;49.272;8.590;2023-11-19T11:29:26;56.61;53.58;60.11;;
70245;Laerm;57637;49.272;8.590;2023-11-19T11:32:32;56.11;53.90;58.85;;
70245;Laerm;57637;49.272;8.590;2023-11-19T11:35:30;54.51;51.15;58.44;;
70245;Laerm;57637;49.272;8.590;2023-11-19T11:38:04;57.83;54.75;60.98;;
70245;Laerm;57637;49.272;8.590;2023-11-19T11:40:31;57.11;54.82;59.51;;
70245;Laerm;57637;49.272;8.590;2023-11-19T11:42:57;57.75;55.22;61.15;;
70245;Laerm;57637;49.272;8.590;2023-11-19T11:45:36;58.52;55.83;60.80;;
70245;Laerm;57637;49.272;8.590;2023-11-19T11:48:10;56.36;53.51;59.26;;
70245;Laerm;57637;49.272;8.590;2023-11-19T11:50:47;56.36;53.54;59.63;;
70245;Laerm;57637;49.272;8.590;2023-11-19T11:53:15;55.95;53.74;58.73;;
70245;Laerm;57637;49.272;8.590;2023-11-19T11:58:08;52.44;50.27;57.74;;
70245;Laerm;57637;49.272;8.590;2023-11-19T12:00:39;52.17;50.49;56.34;;
70245;Laerm;57637;49.272;8.590;2023-11-19T12:03:06;51.76;49.80;55.41;;
70245;Laerm;57637;49.272;8.590;2023-11-19T12:05:33;51.61;49.89;54.55;;
70245;Laerm;57637;49.272;8.590;2023-11-19T12:08:03;53.83;51.07;57.79;;
70245;Laerm;57637;49.272;8.590;2023-11-19T12:10:31;55.37;52.97;57.99;;
70245;Laerm;57637;49.272;8.590;2023-11-19T12:13:01;55.23;52.67;58.01;;
70245;Laerm;57637;49.272;8.590;2023-11-19T12:15:27;58.76;50.92;65.17;;
70245;Laerm;57637;49.272;8.590;2023-11-19T12:17:56;60.16;51.97;65.62;;
70245;Laerm;57637;49.272;8.590;2023-11-19T12:20:26;54.33;51.87;57.24;;
70245;Laerm;57637;49.272;8.590;2023-11-19T12:22:53;54.62;52.02;57.11;;
70245;Laerm;57637;49.272;8.590;2023-11-19T12:25:19;54.80;49.77;61.07;;
70245;Laerm;57637;49.272;8.590;2023-11-19T12:27:49;56.64;53.17;59.40;;
70245;Laerm;57637;49.272;8.590;2023-11-19T12:30:25;56.52;48.75;60.37;;
70245;Laerm;57637;49.272;8.590;2023-11-19T12:32:51;52.35;48.47;60.24;;
70245;Laerm;57637;49.272;8.590;2023-11-19T12:35:19;52.07;48.19;55.56;;
70245;Laerm;57637;49.272;8.590;2023-11-19T12:37:51;52.24;47.96;59.36;;
70245;Laerm;57637;49.272;8.590;2023-11-19T12:42:54;57.60;48.92;63.30;;
70245;Laerm;57637;49.272;8.590;2023-11-19T12:45:20;55.30;49.51;60.87;;
70245;Laerm;57637;49.272;8.590;2023-11-19T12:47:47;52.84;49.35;59.70;;
70245;Laerm;57637;49.272;8.590;2023-11-19T12:50:14;56.25;53.08;60.97;;
70245;Laerm;57637;49.272;8.590;2023-11-19T12:52:40;57.41;51.23;65.89;;
70245;Laerm;57637;49.272;8.590;2023-11-19T12:55:28;55.73;51.22;59.69;;
70245;Laerm;57637;49.272;8.590;2023-11-19T12:57:54;57.21;51.13;63.95;;
70245;Laerm;57637;49.272;8.590;2023-11-19T13:00:23;57.83;52.92;62.28;;
70245;Laerm;57637;49.272;8.590;2023-11-19T13:02:58;59.76;53.10;67.10;;
70245;Laerm;57637;49.272;8.590;2023-11-19T13:08:00;52.96;47.81;65.42;;
70245;Laerm;57637;49.272;8.590;2023-11-19T13:10:27;57.54;47.83;64.91;;
70245;Laerm;57637;49.272;8.590;2023-11-19T13:13:06;57.12;52.38;59.79;;
70245;Laerm;57637;49.272;8.590;2023-11-19T13:15:33;58.85;54.38;62.46;;
70245;Laerm;57637;49.272;8.590;2023-11-19T13:17:59;59.89;55.82;63.96;;
70245;Laerm;57637;49.272;8.590;2023-11-19T13:20:26;60.19;56.31;63.11;;
70245;Laerm;57637;49.272;8.590;2023-11-19T13:23:02;60.25;55.87;65.01;;
70245;Laerm;57637;49.272;8.590;2023-11-19T13:25:30;63.46;53.77;68.99;;
70245;Laerm;57637;49.272;8.590;2023-11-19T13:27:56;64.37;55.37;74.85;;
70245;Laerm;57637;49.272;8.590;2023-11-19T13:30:23;59.66;54.61;63.91;;
70245;Laerm;57637;49.272;8.590;2023-11-19T13:32:50;58.05;54.06;62.71;;
70245;Laerm;57637;49.272;8.590;2023-11-19T13:35:18;58.43;55.00;61.59;;
70245;Laerm;57637;49.272;8.590;2023-11-19T13:37:44;57.97;53.61;61.98;;
70245;Laerm;57637;49.272;8.590;2023-11-19T13:40:10;56.48;53.40;61.60;;
70245;Laerm;57637;49.272;8.590;2023-11-19T13:42:43;56.93;54.05;59.72;;
70245;Laerm;57637;49.272;8.590;2023-11-19T13:45:12;58.18;55.44;61.43;;
70245;Laerm;57637;49.272;8.590;2023-11-19T13:47:39;56.42;53.15;60.36;;
70245;Laerm;57637;49.272;8.590;2023-11-19T13:50:08;54.87;53.15;59.86;;
70245;Laerm;57637;49.272;8.590;2023-11-19T13:52:34;54.62;52.34;60.33;;
70245;Laerm;57637;49.272;8.590;2023-11-19T13:54:59;54.88;52.51;60.62;;